Time;durP1;ratioP1;P1;durP2;ratioP2;P2;SDS_P1;SDS_P2;PMS_P1;PMS_P2;Temp;Humidity;BMP_temperature;BMP_pressure;BME280_temperature;BME280_humidity;BME280_pressure;Samples;Min_cycle;Max_cycle;Signal;HPM_P1;HPM_P2
2022/04/27 00:01:17;;;;;;;10.02;7.32;;;6.60;99.90;;;;;;5081660;28;20044;-50
2022/04/27 00:03:43;;;;;;;9.20;6.70;;;6.60;99.90;;;;;;5074578;28;20060;-48
2022/04/27 00:06:09;;;;;;;8.45;7.65;;;6.70;99.90;;;;;;5064245;28;20060;-51
2022/04/27 00:08:35;;;;;;;10.20;7.82;;;6.70;99.90;;;;;;5071952;28;20048;-53
2022/04/27 00:11:01;;;;;;;13.75;7.43;;;6.70;99.90;;;;;;5070909;28;20387;-49
2022/04/27 00:13:27;;;;;;;9.40;8.07;;;6.80;99.90;;;;;;5074792;28;20036;-49
2022/04/27 00:15:53;;;;;;;9.88;7.70;;;6.80;99.90;;;;;;5061238;28;20457;-47
2022/04/27 00:18:18;;;;;;;12.15;7.93;;;6.70;99.90;;;;;;5067057;28;20048;-49
2022/04/27 00:20:44;;;;;;;11.80;7.70;;;6.80;99.90;;;;;;5081387;28;20044;-50
2022/04/27 00:23:11;;;;;;;8.57;7.60;;;6.90;99.90;;;;;;5081965;28;20051;-48
2022/04/27 00:25:44;;;;;;;9.90;8.25;;;6.90;99.90;;;;;;5081274;28;20052;-48
2022/04/27 00:28:10;;;;;;;;;;;6.90;99.90;;;;;;5079956;28;20056;-50
2022/04/27 00:30:36;;;;;;;11.05;7.68;;;7.00;99.90;;;;;;5069264;28;19990;-49
2022/04/27 00:33:01;;;;;;;11.70;7.47;;;7.00;99.90;;;;;;5075870;28;20048;-46
2022/04/27 00:35:27;;;;;;;9.50;7.97;;;7.10;99.90;;;;;;5070345;28;20060;-48
2022/04/27 00:37:53;;;;;;;9.80;7.32;;;7.10;99.90;;;;;;5061260;28;20127;-48
2022/04/27 00:40:18;;;;;;;12.48;8.32;;;7.20;99.90;;;;;;5066148;28;20040;-50
2022/04/27 00:42:44;;;;;;;12.50;6.90;;;7.20;99.90;;;;;;5063737;28;20063;-50
2022/04/27 00:45:10;;;;;;;19.13;10.80;;;7.20;99.90;;;;;;5071338;28;20063;-50
2022/04/27 00:47:36;;;;;;;20.02;11.45;;;7.20;99.90;;;;;;5064111;28;20059;-50
2022/04/27 00:50:02;;;;;;;18.70;11.13;;;7.20;99.90;;;;;;5067511;28;20544;-47
2022/04/27 00:52:30;;;;;;;18.55;9.88;;;7.30;99.90;;;;;;5079588;28;20060;-46
2022/04/27 00:54:57;;;;;;;11.90;9.02;;;7.30;99.90;;;;;;5077114;28;20055;-45
2022/04/27 00:57:25;;;;;;;11.68;7.82;;;7.30;99.90;;;;;;5070934;28;20040;-48
2022/04/27 00:59:51;;;;;;;10.23;8.25;;;7.40;99.90;;;;;;5070427;28;20126;-48
2022/04/27 01:02:17;;;;;;;12.02;6.70;;;7.40;99.90;;;;;;5069469;28;20087;-47
2022/04/27 01:04:43;;;;;;;9.13;7.15;;;7.40;99.90;;;;;;5080586;28;20065;-48
2022/04/27 01:07:11;;;;;;;12.68;7.75;;;7.40;99.90;;;;;;5067511;28;20376;-51
2022/04/27 01:09:37;;;;;;;13.10;8.40;;;7.50;99.90;;;;;;5068292;28;20056;-46
2022/04/27 01:12:04;;;;;;;12.23;7.65;;;7.50;99.90;;;;;;5064356;28;20042;-51
2022/04/27 01:14:41;;;;;;;10.75;7.90;;;7.50;99.90;;;;;;5080624;28;20090;-49
2022/04/27 01:17:07;;;;;;;13.00;7.75;;;7.50;99.90;;;;;;5074412;28;20457;-51
2022/04/27 01:19:33;;;;;;;11.38;7.82;;;7.60;99.90;;;;;;5073488;28;20056;-49
2022/04/27 01:22:00;;;;;;;11.55;7.75;;;7.60;99.90;;;;;;5084500;28;20078;-44
2022/04/27 01:24:26;;;;;;;13.13;7.90;;;7.60;99.90;;;;;;5082289;28;20058;-50
2022/04/27 01:26:57;;;;;;;11.50;7.57;;;7.60;99.90;;;;;;5060947;28;20407;-46
2022/04/27 01:29:22;;;;;;;11.48;6.82;;;7.50;99.90;;;;;;5059528;28;20131;-48
2022/04/27 01:31:49;;;;;;;12.48;6.57;;;7.60;99.90;;;;;;5060106;28;20044;-48
2022/04/27 01:34:15;;;;;;;11.00;5.90;;;7.60;99.90;;;;;;5058882;28;20135;-49
2022/04/27 01:36:41;;;;;;;10.07;5.65;;;7.60;99.90;;;;;;5061750;28;20468;-51
2022/04/27 01:39:07;;;;;;;8.23;5.55;;;7.60;99.90;;;;;;5066615;28;20052;-48
2022/04/27 01:41:34;;;;;;;10.63;5.47;;;7.70;99.90;;;;;;5072675;28;20588;-51
2022/04/27 01:44:01;;;;;;;6.47;4.95;;;7.70;99.90;;;;;;5080678;28;20122;-48
2022/04/27 01:46:27;;;;;;;6.40;4.20;;;7.70;99.90;;;;;;5079602;28;20088;-49
2022/04/27 01:48:54;;;;;;;5.47;3.88;;;7.70;99.90;;;;;;5079669;28;20044;-49
2022/04/27 01:54:14;;;;;;;5.95;3.63;;;7.70;99.90;;;;;;5076938;28;20047;-48
2022/04/27 01:54:15;;;;;;;6.30;4.10;;;7.70;99.90;;;;;;5077439;28;20062;-49
2022/04/27 01:56:45;;;;;;;6.30;3.33;;;7.80;99.90;;;;;;5079343;28;20682;-50
2022/04/27 01:59:12;;;;;;;4.60;3.60;;;7.70;99.90;;;;;;5080744;28;20158;-51
2022/04/27 02:01:38;;;;;;;6.97;3.88;;;7.80;99.90;;;;;;5079148;28;20565;-49
2022/04/27 02:04:04;;;;;;;5.30;3.58;;;7.80;99.90;;;;;;5078056;28;20056;-52
2022/04/27 02:06:30;;;;;;;6.85;3.53;;;7.80;99.90;;;;;;5069589;28;20654;-46
2022/04/27 02:08:57;;;;;;;4.57;3.45;;;7.80;99.90;;;;;;5077699;28;20043;-48
2022/04/27 02:11:25;;;;;;;5.00;3.72;;;7.80;99.90;;;;;;5058610;28;20411;-50
2022/04/27 02:13:54;;;;;;;6.30;3.53;;;7.80;99.90;;;;;;5073775;28;20048;-49
2022/04/27 02:16:28;;;;;;;6.20;3.40;;;7.80;99.90;;;;;;5079676;28;20087;-50
2022/04/27 02:18:55;;;;;;;3.97;3.28;;;7.80;99.90;;;;;;5067152;28;20052;-41
2022/04/27 02:21:22;;;;;;;5.60;3.92;;;7.80;99.90;;;;;;5059554;28;20066;-47
2022/04/27 02:23:49;;;;;;;6.55;3.53;;;7.80;99.90;;;;;;5069436;28;20044;-49
2022/04/27 02:26:16;;;;;;;4.97;3.15;;;7.90;99.90;;;;;;5080331;28;20059;-51
2022/04/27 02:28:41;;;;;;;5.68;3.42;;;7.90;99.90;;;;;;5080870;28;20444;-51
2022/04/27 02:31:08;;;;;;;4.40;3.45;;;7.90;99.90;;;;;;5081659;28;20145;-48
2022/04/27 02:33:34;;;;;;;7.07;3.67;;;7.90;99.90;;;;;;5074107;28;20056;-51
2022/04/27 02:36:00;;;;;;;10.40;4.25;;;7.90;99.90;;;;;;5061242;28;20719;-48
2022/04/27 02:38:27;;;;;;;6.65;3.92;;;7.90;99.90;;;;;;5061591;28;20499;-51
2022/04/27 02:40:54;;;;;;;9.20;4.20;;;7.80;99.90;;;;;;5060706;28;20117;-55
2022/04/27 02:43:21;;;;;;;5.65;3.90;;;7.80;99.90;;;;;;5077107;28;20048;-50
2022/04/27 02:45:47;;;;;;;7.65;3.80;;;7.80;99.90;;;;;;5063147;28;20076;-46
2022/04/27 02:48:12;;;;;;;5.50;3.60;;;7.90;99.90;;;;;;5059671;28;20124;-47
2022/04/27 02:53:22;;;;;;;6.50;4.53;;;7.90;99.90;;;;;;5071443;28;20051;-48
2022/04/27 02:55:48;;;;;;;7.03;4.30;;;7.90;99.90;;;;;;5068062;28;20052;-48
2022/04/27 02:58:14;;;;;;;6.25;4.15;;;7.90;99.90;;;;;;5077475;28;20040;-49
2022/04/27 03:00:44;;;;;;;6.18;4.47;;;7.90;99.90;;;;;;5079920;28;20087;-52
2022/04/27 03:03:11;;;;;;;10.50;4.47;;;7.90;99.90;;;;;;5080483;28;20083;-48
2022/04/27 03:05:36;;;;;;;7.35;4.03;;;7.80;99.90;;;;;;5079392;28;20054;-52
2022/04/27 03:08:03;;;;;;;7.50;4.70;;;7.90;99.90;;;;;;5073365;28;20347;-47
2022/04/27 03:10:28;;;;;;;5.50;4.15;;;7.90;99.90;;;;;;5067481;28;20059;-53
2022/04/27 03:12:54;;;;;;;6.10;4.82;;;7.90;99.90;;;;;;5060354;28;20057;-48
2022/04/27 03:15:20;;;;;;;9.13;5.22;;;7.90;99.90;;;;;;5057625;28;20520;-49
2022/04/27 03:18:16;;;;;;;6.38;4.50;;;7.80;99.90;;;;;;5069041;28;20091;-49
2022/04/27 03:20:31;;;;;;;5.40;3.88;;;7.80;99.90;;;;;;5059285;28;20450;-47
2022/04/27 03:22:57;;;;;;;6.38;4.07;;;7.80;99.90;;;;;;5074341;28;20052;-48
2022/04/27 03:25:22;;;;;;;4.85;3.50;;;7.80;99.90;;;;;;5061024;28;20241;-45
2022/04/27 03:27:48;;;;;;;5.25;4.40;;;7.80;99.90;;;;;;5072075;28;20468;-51
2022/04/27 03:30:14;;;;;;;7.50;4.18;;;7.90;99.90;;;;;;5063380;28;20111;-49
2022/04/27 03:32:40;;;;;;;7.10;4.32;;;7.90;99.90;;;;;;5063251;28;20517;-46
2022/04/27 03:35:06;;;;;;;9.25;5.13;;;7.90;99.90;;;;;;5062430;28;20067;-48
2022/04/27 03:37:31;;;;;;;5.50;3.70;;;7.80;99.90;;;;;;5064936;28;20471;-49
2022/04/27 03:39:57;;;;;;;5.47;3.53;;;7.80;99.90;;;;;;5083462;28;20390;-49
2022/04/27 03:42:23;;;;;;;6.00;3.75;;;7.80;99.90;;;;;;5082721;28;20469;-48
2022/04/27 03:44:48;;;;;;;6.57;3.50;;;7.90;99.90;;;;;;5063279;28;20445;-47
2022/04/27 03:47:14;;;;;;;7.63;4.05;;;7.80;99.90;;;;;;5063456;28;20052;-50
2022/04/27 03:49:40;;;;;;;5.85;3.50;;;7.80;99.90;;;;;;5079918;28;20079;-50
2022/04/27 03:52:06;;;;;;;5.32;3.50;;;7.80;99.90;;;;;;5076407;28;20143;-50
2022/04/27 03:54:32;;;;;;;4.47;3.60;;;7.80;99.90;;;;;;5081459;28;20079;-49
2022/04/27 03:56:58;;;;;;;4.82;3.63;;;7.90;99.90;;;;;;5063143;28;20936;-47
2022/04/27 03:59:25;;;;;;;7.85;4.03;;;7.90;99.90;;;;;;5069932;28;20055;-47
2022/04/27 04:01:51;;;;;;;4.65;3.80;;;7.90;99.90;;;;;;5064556;28;20136;-47
2022/04/27 04:04:16;;;;;;;5.57;3.65;;;7.80;99.90;;;;;;5063864;28;20141;-50
2022/04/27 04:06:42;;;;;;;4.13;3.72;;;7.80;99.90;;;;;;5062200;28;20046;-50
2022/04/27 04:09:09;;;;;;;4.65;3.65;;;7.90;99.90;;;;;;5077032;28;20048;-50
2022/04/27 04:11:35;;;;;;;5.07;4.07;;;7.90;99.90;;;;;;5080123;28;20151;-51
2022/04/27 04:14:01;;;;;;;6.68;3.35;;;7.80;99.90;;;;;;5082681;28;20052;-47
2022/04/27 04:16:27;;;;;;;8.23;4.40;;;7.80;99.90;;;;;;5079517;28;20052;-47
2022/04/27 04:18:52;;;;;;;10.68;4.88;;;7.80;99.90;;;;;;5079379;28;20100;-49
2022/04/27 04:21:18;;;;;;;5.25;4.28;;;7.90;99.90;;;;;;5081336;28;20044;-47
2022/04/27 04:23:44;;;;;;;7.22;4.07;;;7.80;99.90;;;;;;5074564;28;20535;-50
2022/04/27 04:28:54;;;;;;;7.50;4.35;;;7.80;99.90;;;;;;5066310;28;20045;-51
2022/04/27 04:31:20;;;;;;;7.07;3.88;;;7.80;99.90;;;;;;5066480;28;20055;-51
2022/04/27 04:33:45;;;;;;;5.65;4.05;;;7.80;99.90;;;;;;5082340;28;20051;-46
2022/04/27 04:36:11;;;;;;;6.32;4.50;;;7.80;99.90;;;;;;5080757;28;20402;-48
2022/04/27 04:38:37;;;;;;;6.10;4.18;;;7.80;99.90;;;;;;5082156;28;20379;-49
2022/04/27 04:41:03;;;;;;;6.78;4.55;;;7.80;99.90;;;;;;5081746;28;20455;-49
2022/04/27 04:43:32;;;;;;;5.35;4.55;;;7.80;99.90;;;;;;5062708;28;20048;-46
2022/04/27 04:45:58;;;;;;;5.13;4.63;;;7.80;99.90;;;;;;5061149;28;20510;-47
2022/04/27 04:48:24;;;;;;;6.97;4.72;;;7.80;99.90;;;;;;5061409;28;20056;-50
2022/04/27 04:50:50;;;;;;;6.15;4.65;;;7.90;99.90;;;;;;5072773;28;20094;-50
2022/04/27 04:53:17;;;;;;;6.57;4.30;;;7.80;99.90;;;;;;5067075;28;20064;-49
2022/04/27 04:55:43;;;;;;;4.80;4.18;;;7.80;99.90;;;;;;5062050;28;20401;-50
2022/04/27 04:58:10;;;;;;;4.80;4.13;;;7.90;99.90;;;;;;5061914;28;20056;-53
2022/04/27 05:00:37;;;;;;;6.18;4.38;;;7.80;99.90;;;;;;5062201;28;20177;-51
2022/04/27 05:03:03;;;;;;;5.03;4.53;;;7.80;99.90;;;;;;5066740;28;20098;-49
2022/04/27 05:05:29;;;;;;;5.05;4.53;;;7.80;99.90;;;;;;5065957;28;20055;-50
2022/04/27 05:07:54;;;;;;;6.68;4.35;;;7.90;99.90;;;;;;5070360;28;20056;-45
2022/04/27 05:10:20;;;;;;;5.43;4.25;;;7.90;99.90;;;;;;5063418;28;20407;-54
2022/04/27 05:12:46;;;;;;;7.45;4.63;;;7.90;99.90;;;;;;5062367;28;20177;-50
2022/04/27 05:15:12;;;;;;;9.25;5.00;;;7.90;99.90;;;;;;5065168;28;20044;-47
2022/04/27 05:17:39;;;;;;;6.07;4.47;;;7.90;99.90;;;;;;5061719;28;20460;-49
2022/04/27 05:20:07;;;;;;;7.07;4.57;;;8.00;99.90;;;;;;5061245;28;20473;-51
2022/04/27 05:22:40;;;;;;;6.57;4.88;;;8.00;99.90;;;;;;5072365;28;20461;-49
2022/04/27 05:25:10;;;;;;;7.47;5.00;;;8.00;99.90;;;;;;5068757;28;20109;-49
2022/04/27 05:27:37;;;;;;;6.70;4.78;;;8.10;99.90;;;;;;5060709;28;20056;-50
2022/04/27 05:32:49;;;;;;;5.72;4.55;;;8.20;99.90;;;;;;5060785;28;20159;-48
2022/04/27 05:35:15;;;;;;;6.22;4.80;;;8.20;99.90;;;;;;5067427;28;20413;-47
2022/04/27 05:37:41;;;;;;;8.02;4.38;;;8.30;99.90;;;;;;5077731;28;20467;-51
2022/04/27 05:40:08;;;;;;;8.07;4.80;;;8.30;99.90;;;;;;5060962;28;20408;-50
2022/04/27 05:42:36;;;;;;;8.45;4.82;;;8.30;99.90;;;;;;5061007;28;20049;-50
2022/04/27 05:45:06;;;;;;;6.80;4.63;;;8.40;99.90;;;;;;5060285;28;20092;-51
2022/04/27 05:47:32;;;;;;;6.38;4.43;;;8.40;99.90;;;;;;5066760;28;20093;-44
2022/04/27 05:49:58;;;;;;;8.73;4.90;;;8.40;99.90;;;;;;5066137;28;20048;-49
2022/04/27 05:52:24;;;;;;;7.15;4.43;;;8.40;99.90;;;;;;5069295;28;20518;-52
2022/04/27 05:54:51;;;;;;;5.68;4.95;;;8.50;99.90;;;;;;5074998;28;20589;-48
2022/04/27 05:57:17;;;;;;;6.13;4.90;;;8.50;99.90;;;;;;5073525;28;20514;-51
2022/04/27 05:59:43;;;;;;;7.63;4.80;;;8.50;99.90;;;;;;5080857;28;20499;-50
2022/04/27 06:02:09;;;;;;;9.07;4.55;;;8.50;99.90;;;;;;5079168;28;20052;-48
2022/04/27 06:04:35;;;;;;;6.25;4.95;;;8.60;99.90;;;;;;5066983;28;20048;-49
2022/04/27 06:07:01;;;;;;;7.22;5.15;;;8.70;99.90;;;;;;5060563;28;20093;-48
2022/04/27 06:09:27;;;;;;;8.10;4.80;;;8.70;99.90;;;;;;5075890;28;20040;-51
2022/04/27 06:11:53;;;;;;;7.85;5.65;;;8.80;99.90;;;;;;5061111;28;20051;-51
2022/04/27 06:14:20;;;;;;;9.10;5.03;;;8.80;99.90;;;;;;5063749;28;20090;-50
2022/04/27 06:16:45;;;;;;;6.93;4.60;;;8.90;99.90;;;;;;5080046;28;20052;-49
2022/04/27 06:19:12;;;;;;;6.47;4.93;;;8.90;99.90;;;;;;5066473;28;20059;-48
2022/04/27 06:21:37;;;;;;;7.20;4.50;;;9.00;99.90;;;;;;5063934;28;20052;-49
2022/04/27 06:24:05;;;;;;;8.18;4.85;;;9.00;99.90;;;;;;5061251;28;20047;-52
2022/04/27 06:26:33;;;;;;;7.80;5.30;;;9.10;99.90;;;;;;5074494;28;20044;-44
2022/04/27 06:29:03;;;;;;;5.95;4.88;;;9.00;99.90;;;;;;5061049;28;20225;-53
2022/04/27 06:31:30;;;;;;;5.93;4.25;;;9.10;99.90;;;;;;5060665;28;20057;-52
2022/04/27 06:33:56;;;;;;;5.78;4.93;;;9.20;99.90;;;;;;5066179;28;20575;-52
2022/04/27 06:36:22;;;;;;;6.03;4.90;;;9.20;99.90;;;;;;5066021;28;20581;-50
2022/04/27 06:38:48;;;;;;;5.63;4.00;;;9.20;99.90;;;;;;5060065;28;20044;-44
2022/04/27 06:41:14;;;;;;;7.80;4.45;;;9.20;99.90;;;;;;5059681;28;20051;-48
2022/04/27 06:43:39;;;;;;;6.57;3.97;;;9.30;99.90;;;;;;5064900;28;20092;-50
2022/04/27 06:46:05;;;;;;;7.40;4.55;;;9.30;99.90;;;;;;5064673;28;20126;-53
2022/04/27 06:48:32;;;;;;;6.85;4.68;;;9.40;99.90;;;;;;5061162;28;20045;-49
2022/04/27 06:50:58;;;;;;;11.20;4.35;;;9.40;99.90;;;;;;5072791;28;20052;-48
2022/04/27 06:53:24;;;;;;;6.72;5.15;;;9.50;99.90;;;;;;5070821;28;20052;-52
2022/04/27 06:55:50;;;;;;;7.95;4.95;;;9.60;99.90;;;;;;5079909;28;20052;-49
2022/04/27 06:58:16;;;;;;;12.48;4.82;;;9.70;99.90;;;;;;5062828;28;20053;-49
2022/04/27 07:00:42;;;;;;;7.82;4.95;;;9.70;99.90;;;;;;5062725;28;20147;-53
2022/04/27 07:03:09;;;;;;;8.98;5.00;;;9.80;99.90;;;;;;5070662;28;20041;-52
2022/04/27 07:05:35;;;;;;;6.95;4.72;;;9.90;99.90;;;;;;5066274;28;20055;-51
2022/04/27 07:08:01;;;;;;;12.60;5.25;;;9.90;99.90;;;;;;5066292;28;20564;-51
2022/04/27 07:10:27;;;;;;;9.40;4.82;;;10.00;99.90;;;;;;5071824;28;20045;-50
2022/04/27 07:12:52;;;;;;;12.05;4.45;;;10.00;99.90;;;;;;5063757;28;20109;-51
2022/04/27 07:15:18;;;;;;;9.77;4.88;;;10.00;99.90;;;;;;5075470;28;20047;-51
2022/04/27 07:17:44;;;;;;;11.57;5.53;;;10.10;99.90;;;;;;5081801;28;20163;-53
2022/04/27 07:20:10;;;;;;;16.88;10.98;;;10.10;99.90;;;;;;5081285;28;20490;-49
2022/04/27 07:22:37;;;;;;;11.77;6.10;;;10.10;99.90;;;;;;5074936;28;20590;-52
2022/04/27 07:25:03;;;;;;;9.88;4.53;;;10.20;99.90;;;;;;5076569;28;20044;-51
2022/04/27 07:27:31;;;;;;;8.35;4.60;;;10.20;99.90;;;;;;5075586;28;20043;-47
2022/04/27 07:29:57;;;;;;;8.98;6.38;;;10.20;99.90;;;;;;5076807;28;20051;-49
2022/04/27 07:32:23;;;;;;;9.80;7.15;;;10.20;99.90;;;;;;5078439;28;20043;-49
2022/04/27 07:34:51;;;;;;;9.80;5.70;;;10.30;99.90;;;;;;5077643;28;20040;-47
2022/04/27 07:37:17;;;;;;;10.50;6.03;;;10.30;99.90;;;;;;5080667;28;20490;-50
2022/04/27 07:39:43;;;;;;;10.25;5.65;;;10.30;99.90;;;;;;5076735;28;20052;-49
2022/04/27 07:42:09;;;;;;;11.63;6.03;;;10.40;99.90;;;;;;5076614;28;20048;-49
2022/04/27 07:44:35;;;;;;;11.45;6.13;;;10.40;99.90;;;;;;5073784;28;20066;-51
2022/04/27 07:47:01;;;;;;;14.43;6.88;;;10.40;99.90;;;;;;5073511;28;20052;-53
2022/04/27 07:49:27;;;;;;;15.70;5.57;;;10.50;99.90;;;;;;5076905;28;20401;-52
2022/04/27 07:51:53;;;;;;;20.30;7.22;;;10.50;99.90;;;;;;5074937;28;20087;-48
2022/04/27 07:54:19;;;;;;;16.27;6.25;;;10.40;99.90;;;;;;5076731;28;20585;-53
2022/04/27 07:56:45;;;;;;;17.00;5.25;;;10.50;99.90;;;;;;5074354;28;20052;-51
2022/04/27 07:59:10;;;;;;;16.27;5.40;;;10.50;99.90;;;;;;5065235;28;20044;-53
2022/04/27 08:01:36;;;;;;;11.15;5.20;;;10.50;99.90;;;;;;5062172;28;20056;-50
2022/04/27 08:04:02;;;;;;;12.05;4.95;;;10.50;99.90;;;;;;5059862;28;20063;-49
2022/04/27 08:06:28;;;;;;;18.70;4.50;;;10.60;99.90;;;;;;5060047;28;20118;-52
2022/04/27 08:08:54;;;;;;;16.55;5.00;;;10.60;99.90;;;;;;5077266;28;20043;-53
2022/04/27 08:11:20;;;;;;;11.73;4.22;;;10.70;99.90;;;;;;5064515;28;20081;-41
2022/04/27 08:13:45;;;;;;;15.35;4.43;;;10.70;99.90;;;;;;5082972;28;20036;-52
2022/04/27 08:16:12;;;;;;;14.43;4.28;;;10.70;99.90;;;;;;5081453;28;20121;-51
2022/04/27 08:18:38;;;;;;;12.48;4.03;;;10.70;99.90;;;;;;5072457;28;20415;-53
2022/04/27 08:21:14;;;;;;;16.02;4.90;;;10.80;99.90;;;;;;5071858;28;20434;-51
2022/04/27 08:23:41;;;;;;;12.50;4.65;;;10.80;99.90;;;;;;5062387;28;20174;-48
2022/04/27 08:26:13;;;;;;;18.88;5.15;;;10.90;99.90;;;;;;5062020;28;20182;-48
2022/04/27 08:28:40;;;;;;;18.42;5.28;;;10.90;99.90;;;;;;5061677;28;20567;-42
2022/04/27 08:31:07;;;;;;;15.30;4.65;;;10.90;99.90;;;;;;5073494;28;20071;-50
2022/04/27 08:33:34;;;;;;;19.45;4.60;;;11.00;99.90;;;;;;5069608;28;20048;-50
2022/04/27 08:36:03;;;;;;;11.82;4.30;;;11.00;99.90;;;;;;5060743;28;20446;-50
2022/04/27 08:38:29;;;;;;;9.30;3.92;;;11.00;99.90;;;;;;5060087;28;20528;-52
2022/04/27 08:40:55;;;;;;;13.18;3.88;;;11.00;99.90;;;;;;5067530;28;20391;-48
2022/04/27 08:43:22;;;;;;;11.27;4.00;;;11.00;99.90;;;;;;5075172;28;20052;-48
2022/04/27 08:45:48;;;;;;;15.27;4.15;;;11.00;99.90;;;;;;5074302;28;20056;-48
2022/04/27 08:48:17;;;;;;;9.52;3.50;;;11.00;99.90;;;;;;5072209;28;20824;-50
2022/04/27 08:50:45;;;;;;;11.23;3.60;;;10.90;99.90;;;;;;5074335;28;20044;-49
2022/04/27 08:53:11;;;;;;;13.20;4.10;;;11.00;99.90;;;;;;5074522;28;20118;-51
2022/04/27 08:55:39;;;;;;;11.10;4.03;;;11.10;99.90;;;;;;5070962;28;20544;-50
2022/04/27 08:58:16;;;;;;;12.63;3.95;;;11.10;99.90;;;;;;5071946;28;20071;-52
2022/04/27 09:00:43;;;;;;;11.75;3.95;;;11.10;99.90;;;;;;5074753;28;20070;-49
2022/04/27 09:03:24;;;;;;;14.93;3.83;;;11.10;99.90;;;;;;5069344;28;20048;-50
2022/04/27 09:06:01;;;;;;;11.27;4.18;;;11.20;99.90;;;;;;5066897;28;20053;-53
2022/04/27 09:08:36;;;;;;;12.35;3.72;;;11.20;99.90;;;;;;5066136;28;20091;-50
2022/04/27 09:11:25;;;;;;;12.52;3.45;;;11.30;99.90;;;;;;5069095;28;20621;-50
2022/04/27 09:14:00;;;;;;;18.75;5.65;;;11.40;99.90;;;;;;5070648;28;20123;-51
2022/04/27 09:20:46;;;;;;;13.75;3.92;;;11.40;99.90;;;;;;5071215;28;20076;-52
2022/04/27 09:22:05;;;;;;;13.82;3.70;;;11.60;99.90;;;;;;5072636;28;20126;-47
2022/04/27 09:24:51;;;;;;;14.20;4.00;;;11.60;99.90;;;;;;5068876;28;20071;-49
2022/04/27 09:27:24;;;;;;;13.95;4.22;;;11.60;99.90;;;;;;5068829;28;20051;-44
2022/04/27 09:30:10;;;;;;;;;;;11.60;99.90;;;;;;5071506;28;20037;-50
2022/04/27 09:33:02;;;;;;;13.85;4.10;;;11.60;99.90;;;;;;5072007;28;20370;-49
2022/04/27 09:35:36;;;;;;;11.85;4.07;;;11.60;99.90;;;;;;5065969;28;20052;-53
2022/04/27 09:38:12;;;;;;;;;;;11.60;99.90;;;;;;5072582;28;20047;-52
2022/04/27 09:40:50;;;;;;;13.93;3.95;;;11.70;99.90;;;;;;5070620;28;19925;-51
2022/04/27 09:43:16;;;;;;;13.25;4.20;;;11.80;99.90;;;;;;5068621;28;20471;-49
2022/04/27 09:45:44;;;;;;;16.92;5.10;;;11.90;99.90;;;;;;5070270;28;20040;-51
2022/04/27 09:48:19;;;;;;;9.85;3.58;;;11.90;99.90;;;;;;5070465;28;20410;-53
2022/04/27 09:50:46;;;;;;;13.50;4.60;;;12.00;99.90;;;;;;5072679;28;20052;-48
2022/04/27 09:53:14;;;;;;;12.60;4.88;;;12.10;99.90;;;;;;5072500;28;20055;-52
2022/04/27 09:55:50;;;;;;;19.38;4.45;;;12.10;99.90;;;;;;5079273;28;20051;-52
2022/04/27 09:58:19;;;;;;;16.67;4.93;;;12.10;99.90;;;;;;5078116;28;20085;-49
2022/04/27 10:00:52;;;;;;;14.57;3.63;;;12.10;99.90;;;;;;5072598;28;20857;-50
2022/04/27 10:03:21;;;;;;;;;;;12.20;99.90;;;;;;5072701;28;20443;-49
2022/04/27 10:05:47;;;;;;;9.27;4.03;;;12.10;99.90;;;;;;5072507;28;20406;-53
2022/04/27 10:08:13;;;;;;;10.80;3.50;;;12.10;99.90;;;;;;5070455;28;20075;-49
2022/04/27 10:10:45;;;;;;;13.52;3.60;;;12.40;99.90;;;;;;5077169;28;20055;-52
2022/04/27 10:13:14;;;;;;;9.80;3.33;;;12.70;99.90;;;;;;5067362;28;20052;-50
2022/04/27 10:15:46;;;;;;;14.90;3.72;;;13.00;99.90;;;;;;5071020;28;20080;-50
2022/04/27 10:18:16;;;;;;;8.38;2.83;;;13.20;99.90;;;;;;5067436;28;20044;-56
2022/04/27 10:20:43;;;;;;;7.05;3.10;;;13.30;99.90;;;;;;5070045;28;20043;-49
2022/04/27 10:23:15;;;;;;;9.68;3.08;;;13.50;99.90;;;;;;5070491;28;20116;-54
2022/04/27 10:25:41;;;;;;;9.73;3.42;;;13.60;99.90;;;;;;5066576;28;20052;-52
2022/04/27 10:28:22;;;;;;;11.35;3.25;;;13.90;99.90;;;;;;5063196;28;20044;-52
2022/04/27 10:30:48;;;;;;;10.63;3.97;;;13.90;99.90;;;;;;5071668;28;20139;-48
2022/04/27 10:33:40;;;;;;;11.35;4.63;;;14.00;99.90;;;;;;5076020;28;20066;-48
2022/04/27 10:36:28;;;;;;;12.48;3.58;;;14.10;99.90;;;;;;5069485;28;20161;-50
2022/04/27 10:39:12;;;;;;;8.50;3.53;;;14.10;99.90;;;;;;5069946;28;20044;-53
2022/04/27 10:41:48;;;;;;;12.10;3.90;;;14.20;99.90;;;;;;5070844;28;20102;-53
2022/04/27 10:44:14;;;;;;;14.15;3.88;;;14.20;99.90;;;;;;5062401;28;20044;-52
2022/04/27 10:46:43;;;;;;;11.98;3.78;;;14.10;99.70;;;;;;5059338;28;20576;-53
2022/04/27 10:49:28;;;;;;;12.43;3.47;;;14.00;99.40;;;;;;5062299;28;20087;-51
2022/04/27 10:52:05;;;;;;;10.30;3.70;;;14.10;99.90;;;;;;5069176;28;20136;-51
2022/04/27 10:54:33;;;;;;;12.88;3.67;;;14.20;99.90;;;;;;5059936;28;20099;-52
2022/04/27 10:57:18;;;;;;;15.07;4.05;;;13.90;99.80;;;;;;5059819;28;20526;-51
2022/04/27 10:59:56;;;;;;;15.15;4.55;;;13.80;99.90;;;;;;5059596;28;20086;-51
2022/04/27 11:02:36;;;;;;;11.55;4.15;;;13.70;99.90;;;;;;5049819;28;20043;-47
2022/04/27 11:05:11;;;;;;;14.82;4.63;;;13.70;99.90;;;;;;5078097;28;20415;-51
2022/04/27 11:07:55;;;;;;;11.60;3.58;;;13.70;99.80;;;;;;5078352;28;20091;-51
2022/04/27 11:10:21;;;;;;;10.20;3.30;;;13.70;99.70;;;;;;5080842;28;20052;-52
2022/04/27 11:12:52;;;;;;;9.70;3.70;;;13.70;99.90;;;;;;5070668;28;20573;-53
2022/04/27 11:15:23;;;;;;;12.68;3.33;;;13.70;99.90;;;;;;5059675;28;20106;-48
2022/04/27 11:18:00;;;;;;;10.23;3.72;;;13.70;99.90;;;;;;5067724;28;20135;-49
2022/04/27 11:20:35;;;;;;;10.20;3.10;;;13.70;99.90;;;;;;5061655;28;20052;-48
2022/04/27 11:23:07;;;;;;;13.65;4.00;;;13.70;99.90;;;;;;5063216;28;20051;-50
2022/04/27 11:25:38;;;;;;;8.32;3.72;;;13.60;99.90;;;;;;5058971;28;20056;-51
2022/04/27 11:28:06;;;;;;;12.25;4.03;;;13.70;99.90;;;;;;5059948;28;20151;-52
2022/04/27 11:30:33;;;;;;;12.82;3.78;;;13.50;99.50;;;;;;5059610;28;20119;-48
2022/04/27 11:33:00;;;;;;;13.48;3.90;;;13.50;99.90;;;;;;5057333;28;20056;-51
2022/04/27 11:35:40;;;;;;;11.32;3.80;;;13.60;99.90;;;;;;5076719;28;20109;-51
2022/04/27 11:38:08;;;;;;;15.57;4.72;;;13.60;99.80;;;;;;5079409;28;20868;-50
2022/04/27 11:40:38;;;;;;;9.13;3.10;;;13.70;99.90;;;;;;5077803;28;20135;-51
2022/04/27 11:43:05;;;;;;;17.52;4.05;;;13.70;99.90;;;;;;5079575;28;20051;-49
2022/04/27 11:45:30;;;;;;;11.35;3.65;;;13.60;99.90;;;;;;5064020;28;20080;-52
2022/04/27 11:48:00;;;;;;;12.63;4.53;;;13.70;99.90;;;;;;5062122;28;20182;-49
2022/04/27 11:50:37;;;;;;;11.70;3.92;;;13.80;99.50;;;;;;5070875;28;20407;-47
2022/04/27 11:53:05;;;;;;;16.05;4.03;;;13.70;99.80;;;;;;5077214;28;20060;-50
2022/04/27 11:55:32;;;;;;;8.68;3.25;;;13.70;98.60;;;;;;5071938;28;20048;-48
2022/04/27 11:57:59;;;;;;;12.23;3.22;;;13.80;99.10;;;;;;5082925;28;20051;-51
2022/04/27 12:00:27;;;;;;;13.13;4.00;;;13.80;99.00;;;;;;5082587;28;20555;-46
2022/04/27 12:03:04;;;;;;;10.00;3.83;;;13.90;99.60;;;;;;5082617;28;20123;-49
2022/04/27 12:05:34;;;;;;;11.23;3.25;;;13.90;99.30;;;;;;5078644;28;20037;-46
2022/04/27 12:08:10;;;;;;;13.55;3.42;;;14.10;99.20;;;;;;5068062;28;20036;-50
2022/04/27 12:10:42;;;;;;;14.18;4.10;;;14.20;99.90;;;;;;5060813;28;20056;-47
2022/04/27 12:13:13;;;;;;;9.57;3.15;;;14.20;99.40;;;;;;5062493;28;20048;-54
2022/04/27 12:15:42;;;;;;;9.35;3.03;;;14.30;99.30;;;;;;5061037;28;20541;-51
2022/04/27 12:18:28;;;;;;;10.60;3.45;;;14.30;98.90;;;;;;5075523;28;20052;-52
2022/04/27 12:20:58;;;;;;;11.73;3.45;;;14.20;98.90;;;;;;5062306;28;20130;-49
2022/04/27 12:23:30;;;;;;;9.20;3.08;;;14.30;99.90;;;;;;5060894;28;20059;-50
2022/04/27 12:25:58;;;;;;;8.43;3.10;;;14.50;99.90;;;;;;5072866;28;20048;-52
2022/04/27 12:28:34;;;;;;;11.05;3.20;;;14.50;99.40;;;;;;5065230;28;20487;-52
2022/04/27 12:31:08;;;;;;;12.98;3.45;;;14.60;99.00;;;;;;5060826;28;20059;-50
2022/04/27 12:33:44;;;;;;;10.73;3.90;;;14.70;98.30;;;;;;5061265;28;20570;-52
2022/04/27 12:39:03;;;;;;;13.25;3.53;;;14.50;98.80;;;;;;5078892;28;20064;-48
2022/04/27 12:41:47;;;;;;;9.65;3.40;;;14.40;98.00;;;;;;5082731;28;20059;-54
2022/04/27 12:44:25;;;;;;;10.90;3.60;;;14.20;97.30;;;;;;5080755;28;20126;-52
2022/04/27 12:47:07;;;;;;;12.85;3.10;;;14.20;98.20;;;;;;5080053;28;20083;-52
2022/04/27 12:49:32;;;;;;;12.40;3.03;;;14.40;98.50;;;;;;5067213;28;20478;-53
2022/04/27 12:52:30;;;;;;;10.70;3.60;;;14.40;98.20;;;;;;5080543;28;20545;-51
2022/04/27 12:55:03;;;;;;;10.25;3.28;;;14.30;97.50;;;;;;5059436;28;20399;-49
2022/04/27 12:57:50;;;;;;;12.23;3.55;;;14.40;98.00;;;;;;5073423;28;20058;-50
2022/04/27 13:00:18;;;;;;;9.75;3.47;;;14.30;97.60;;;;;;5075757;28;20056;-49
2022/04/27 13:02:44;;;;;;;11.10;3.50;;;14.50;97.80;;;;;;5080166;28;20056;-50
2022/04/27 13:05:10;;;;;;;12.40;3.20;;;14.60;97.90;;;;;;5080554;28;20122;-50
2022/04/27 13:07:36;;;;;;;7.70;3.40;;;14.60;98.30;;;;;;5077830;28;20790;-53
2022/04/27 13:12:48;;;;;;;16.15;4.18;;;14.70;98.50;;;;;;5080516;28;20130;-48